Roanoke, VA

11:02 PM EDT on July 03, 2015 (GMT -0400)
Roanoke Regional-Woodrum | | Change Station
CLOSE
Current Station
Airport
Location: Roanoke,
Elevation: 1175 ft
Nearby Weather Stations

Elev 1175 ft 37.32 °N, 79.97 °W | Updated 8 minutes ago

Light Rain
Light Rain Mist
68 °F
Feels Like 68 °F
N
0
Wind Variable Wind from North

Today
High -- | Low -- °F
--% Chance of Precip.
Yesterday
High -- | Low -- °F
Precip. -- in
6:03 AM 8:44 PM
Waning Gibbous, 95% visible
Pressure 29.95 in
Visibility 3.0 miles
Clouds Mostly Cloudy 600 ft
Overcast 1500 ft
Dew Point 67 °F
Humidity 96%
Rainfall 0.12 in
Snow Depth Not available.
UV 0 out of 12
Pollen .50 out of 12
Air Quality Not available.
Flu Activity Not available.
METAR KROA 040254Z 00000KT 3SM -RA BR BKN006 OVC015 20/19 A2997 RMK AO2 SLP141 P0004 60005 T02000194 51007

More Conditions Fewer Conditions

Pressure 29.95 in
Visibility 3.0 miles
Clouds Mostly Cloudy 600 ft
Overcast 1500 ft
Dew Point 67 °F
Humidity 96%
Rainfall 0.12 in
Snow Depth Not available.
UV 0 out of 12
Pollen .50 out of 12
Air Quality Not available.
Flu Activity Not available.
METAR KROA 040254Z 00000KT 3SM -RA BR BKN006 OVC015 20/19 A2997 RMK AO2 SLP141 P0004 60005 T02000194 51007

More Conditions Fewer Conditions

10-Day Weather Forecast

×

Almanac

Astronomy

Jul. 03, 2015 Rise Set
Actual Time
Civil Twilight
Nautical Twilight
Astronomical Twilight
Moon
Length of Visible Light
Length of Day
Tomorrow will be .
, % of the Moon is Illuminated

Today's Extremes

State Highs State Lows

Community

WunderPhotos

Upload Photos

1,834,909 photos uploaded!

WunderBlogs® & News

Nearby

Air Quality

  Air Quality AQ Index Pollutant
Not available.

Snow Depth

Station Depth Elevation

Earthquake Activity

City Distance Mag. Time & Date
Minimum magnitude displayed is 2.5.

Coastal Water Temperatures

Place Temperature

Stations

Nearby Weather Stations

Station Location Temp. Windchill Dew Point Humidity Wind Precip. Elev Updated Type